Terminal Aerodrome Forecast
Issued by NWS Tampa Bay Area, FL

Home | Current Version | Previous Version | Text Only | Print | Product List | Glossary On
Versions: 1 2 3 4 5 6 7 8 9 10 11 12 13
347
FTUS42 KTBW 200537
TAFSRQ
TAF
KSRQ 200537Z 2006/2106 18006KT P6SM BKN250
     FM201100 16005KT 5SM BR SCT010 BKN120
      TEMPO 2011/2013 3SM BR
     FM201400 17006KT P6SM SCT025 BKN120
     FM201800 20010G15KT P6SM SCT035 BKN120=

USA.gov is the U.S. government's official web portal to all federal, state and local government web resources and services.